Arklow Raider — EIXS — position and weather

sailwx.info

Track history (hours):
 
Tides and Currents Weather Stations Pressure Air Temp Water Temp Dewpoint Dewpoint Depression Visibility Wind Speed Wind Dir Waves Ship Positions

Arklow Raider

Last reported at 2014-Aug-20 12:24 UTC. Time now 2014-Aug-23 17:21 UTC.
Position N 50°33' E 000°03'.

Length 90 m; draft 5.9 m.

Type: Cargo ship. MMSI: 250001268.

Date/timePositionNaut miles runAvg speedWind from/ knotsBaromVisibWave heightAir tempDewpointWater temp
2014-Aug-20 12:24N 50°33' E 000°03'1011.7
2014-Aug-20 11:33N 50°35' E 000°18'1311.8
2014-Aug-20 10:30N 50°39' E 000°37'1111.5
2014-Aug-20 09:33N 50°46' E 000°51'1610.8
2014-Aug-20 08:03N 50°56' E 001°11'510.2
2014-Aug-20 07:32N 50°59' E 001°17'1010.1
2014-Aug-20 06:33N 51°05' E 001°30'1211.1
2014-Aug-20 05:31N 51°12' E 001°44'1111.7
2014-Aug-20 04:32N 51°21' E 001°55'13 9.6
2014-Aug-20 03:09N 51°21' E 002°17'811.8
2014-Aug-20 02:28N 51°23' E 002°29'1010.5
2014-Aug-20 01:33N 51°21' E 002°44'1111.0
2014-Aug-20 00:33N 51°24' E 003°01'1111.2
2014-Aug-19 23:33N 51°25' E 003°19'1212.2
2014-Aug-19 22:33N 51°25' E 003°39'8 8.4
2014-Aug-19 21:34N 51°20' E 003°49'3 3.1
2014-Aug-19 20:30N 51°17' E 003°51'0 0.0
2014-Aug-19 19:12N 51°17' E 003°51'0 0.0
2014-Aug-19 18:33N 51°17' E 003°51'0 0.0
2014-Aug-19 17:33N 51°17' E 003°51'0 0.0
2014-Aug-19 16:12N 51°17' E 003°51'0 0.0
2014-Aug-19 15:30N 51°17' E 003°51'0 0.0
2014-Aug-19 14:24N 51°17' E 003°51'0 0.0
2014-Aug-19 13:18N 51°17' E 003°51'0 0.0
2014-Aug-19 12:18N 51°17' E 003°51'0 0.0
2014-Aug-19 11:33N 51°17' E 003°51'0 0.0
2014-Aug-19 10:33N 51°17' E 003°51'0 0.0
2014-Aug-19 09:33N 51°17' E 003°51'0 0.0
2014-Aug-19 08:18N 51°17' E 003°51'0 0.0
2014-Aug-19 07:30N 51°17' E 003°51'0 0.0
2014-Aug-19 06:33N 51°17' E 003°51'0 0.0
2014-Aug-19 05:30N 51°17' E 003°51'0 0.0
2014-Aug-19 04:24N 51°17' E 003°51'0 0.0
2014-Aug-19 03:33N 51°17' E 003°51'0 0.0
2014-Aug-19 02:21N 51°17' E 003°51'0 0.0
2014-Aug-19 01:33N 51°17' E 003°51'0 0.0
2014-Aug-19 00:30N 51°17' E 003°51'0 0.0
2014-Aug-18 23:33N 51°17' E 003°51'0 0.0
2014-Aug-18 22:18N 51°17' E 003°51'0 0.0
2014-Aug-18 21:30N 51°17' E 003°51'0 0.0
2014-Aug-18 20:33N 51°17' E 003°51'0 0.0
2014-Aug-18 19:30N 51°17' E 003°51'0 0.0
2014-Aug-18 18:33N 51°17' E 003°51'0 0.0
2014-Aug-18 17:24N 51°17' E 003°51'0 0.0
2014-Aug-18 16:30N 51°17' E 003°51'0 0.0
2014-Aug-18 15:30N 51°17' E 003°51'0 0.0
2014-Aug-18 14:27N 51°17' E 003°51'0 0.0
2014-Aug-18 13:30N 51°17' E 003°51'0 0.0
2014-Aug-18 12:30N 51°17' E 003°51'0 0.0
2014-Aug-18 11:33N 51°17' E 003°51'0 0.0
2014-Aug-18 10:27N 51°17' E 003°51'0 0.0
2014-Aug-18 09:33N 51°17' E 003°51'0 0.0
2014-Aug-18 08:33N 51°17' E 003°51'0 0.0
2014-Aug-18 07:33N 51°17' E 003°51'0 0.0
2014-Aug-18 06:27N 51°17' E 003°51'0 0.0
2014-Aug-18 05:30N 51°17' E 003°51'1 0.9
2014-Aug-18 04:33N 51°17' E 003°50'3 2.8
2014-Aug-18 03:34N 51°20' E 003°49'7 6.7
2014-Aug-18 02:33N 51°25' E 003°42'7 7.5
2014-Aug-18 01:33N 51°25' E 003°30'9 8.6
2014-Aug-18 00:32N 51°24' E 003°16'25 4.2
2014-Aug-17 18:32N 51°20' E 002°36'2 2.4
2014-Aug-17 17:33N 51°21' E 002°32'4 4.4
2014-Aug-17 16:33N 51°21' E 002°25'1010.6
2014-Aug-17 15:33N 51°15' E 002°11'1110.6
2014-Aug-17 14:31N 51°10' E 001°56'9 9.7
2014-Aug-17 13:33N 51°04' E 001°44'11 9.1
2014-Aug-17 12:19N 50°56' E 001°32'34 8.8
2014-Aug-17 08:28N 50°29' E 000°59'10 9.8
2014-Aug-17 07:24N 50°26' E 000°43'810.0
2014-Aug-17 06:33N 50°23' E 000°31'228 8.8
2014-Aug-16 04:33N 50°37' W 005°28'1211.9
2014-Aug-16 03:33N 50°44' W 005°13'  
2014-Aug-11 20:32N 53°31' W 003°12'8 8.0
2014-Aug-11 19:33N 53°27' W 003°01'0 0.3
2014-Aug-11 18:23N 53°27' W 003°01'0 0.1
2014-Aug-11 14:22N 53°27' W 003°01'0 0.0
2014-Aug-11 13:28N 53°27' W 003°01'  
Track history (hours):
 
Tides and Currents Weather Stations Pressure Air Temp Water Temp Dewpoint Dewpoint Depression Visibility Wind Speed Wind Dir Waves Ship Positions

Arklow Raider

Last reported at 2014-Aug-20 12:24 UTC. Time now 2014-Aug-23 17:21 UTC.
Position N 50°33' E 000°03'.

Length 90 m; draft 5.9 m.

Type: Cargo ship. MMSI: 250001268.

Date/timePositionNaut miles runAvg speedWind from/ knotsBaromVisibWave heightAir tempDewpointWater temp
2014-Aug-20 12:24N 50°33' E 000°03'1011.7
2014-Aug-20 11:33N 50°35' E 000°18'1311.8
2014-Aug-20 10:30N 50°39' E 000°37'1111.5
2014-Aug-20 09:33N 50°46' E 000°51'1610.8
2014-Aug-20 08:03N 50°56' E 001°11'510.2
2014-Aug-20 07:32N 50°59' E 001°17'1010.1
2014-Aug-20 06:33N 51°05' E 001°30'1211.1
2014-Aug-20 05:31N 51°12' E 001°44'1111.7
2014-Aug-20 04:32N 51°21' E 001°55'13 9.6
2014-Aug-20 03:09N 51°21' E 002°17'811.8
2014-Aug-20 02:28N 51°23' E 002°29'1010.5
2014-Aug-20 01:33N 51°21' E 002°44'1111.0
2014-Aug-20 00:33N 51°24' E 003°01'1111.2
2014-Aug-19 23:33N 51°25' E 003°19'1212.2
2014-Aug-19 22:33N 51°25' E 003°39'8 8.4
2014-Aug-19 21:34N 51°20' E 003°49'3 3.1
2014-Aug-19 20:30N 51°17' E 003°51'0 0.0
2014-Aug-19 19:12N 51°17' E 003°51'0 0.0
2014-Aug-19 18:33N 51°17' E 003°51'0 0.0
2014-Aug-19 17:33N 51°17' E 003°51'0 0.0
2014-Aug-19 16:12N 51°17' E 003°51'0 0.0
2014-Aug-19 15:30N 51°17' E 003°51'0 0.0
2014-Aug-19 14:24N 51°17' E 003°51'0 0.0
2014-Aug-19 13:18N 51°17' E 003°51'0 0.0
2014-Aug-19 12:18N 51°17' E 003°51'0 0.0
2014-Aug-19 11:33N 51°17' E 003°51'0 0.0
2014-Aug-19 10:33N 51°17' E 003°51'0 0.0
2014-Aug-19 09:33N 51°17' E 003°51'0 0.0
2014-Aug-19 08:18N 51°17' E 003°51'0 0.0
2014-Aug-19 07:30N 51°17' E 003°51'0 0.0
2014-Aug-19 06:33N 51°17' E 003°51'0 0.0
2014-Aug-19 05:30N 51°17' E 003°51'0 0.0
2014-Aug-19 04:24N 51°17' E 003°51'0 0.0
2014-Aug-19 03:33N 51°17' E 003°51'0 0.0
2014-Aug-19 02:21N 51°17' E 003°51'0 0.0
2014-Aug-19 01:33N 51°17' E 003°51'0 0.0
2014-Aug-19 00:30N 51°17' E 003°51'0 0.0
2014-Aug-18 23:33N 51°17' E 003°51'0 0.0
2014-Aug-18 22:18N 51°17' E 003°51'0 0.0
2014-Aug-18 21:30N 51°17' E 003°51'0 0.0
2014-Aug-18 20:33N 51°17' E 003°51'0 0.0
2014-Aug-18 19:30N 51°17' E 003°51'0 0.0
2014-Aug-18 18:33N 51°17' E 003°51'0 0.0
2014-Aug-18 17:24N 51°17' E 003°51'0 0.0
2014-Aug-18 16:30N 51°17' E 003°51'0 0.0
2014-Aug-18 15:30N 51°17' E 003°51'0 0.0
2014-Aug-18 14:27N 51°17' E 003°51'0 0.0
2014-Aug-18 13:30N 51°17' E 003°51'0 0.0
2014-Aug-18 12:30N 51°17' E 003°51'0 0.0
2014-Aug-18 11:33N 51°17' E 003°51'0 0.0
2014-Aug-18 10:27N 51°17' E 003°51'0 0.0
2014-Aug-18 09:33N 51°17' E 003°51'0 0.0
2014-Aug-18 08:33N 51°17' E 003°51'0 0.0
2014-Aug-18 07:33N 51°17' E 003°51'0 0.0
2014-Aug-18 06:27N 51°17' E 003°51'0 0.0
2014-Aug-18 05:30N 51°17' E 003°51'1 0.9
2014-Aug-18 04:33N 51°17' E 003°50'3 2.8
2014-Aug-18 03:34N 51°20' E 003°49'7 6.7
2014-Aug-18 02:33N 51°25' E 003°42'7 7.5
2014-Aug-18 01:33N 51°25' E 003°30'9 8.6
2014-Aug-18 00:32N 51°24' E 003°16'25 4.2
2014-Aug-17 18:32N 51°20' E 002°36'2 2.4
2014-Aug-17 17:33N 51°21' E 002°32'4 4.4
2014-Aug-17 16:33N 51°21' E 002°25'1010.6
2014-Aug-17 15:33N 51°15' E 002°11'1110.6
2014-Aug-17 14:31N 51°10' E 001°56'9 9.7
2014-Aug-17 13:33N 51°04' E 001°44'11 9.1
2014-Aug-17 12:19N 50°56' E 001°32'34 8.8
2014-Aug-17 08:28N 50°29' E 000°59'10 9.8
2014-Aug-17 07:24N 50°26' E 000°43'810.0
2014-Aug-17 06:33N 50°23' E 000°31'228 8.8
2014-Aug-16 04:33N 50°37' W 005°28'1211.9
2014-Aug-16 03:33N 50°44' W 005°13'  
2014-Aug-11 20:32N 53°31' W 003°12'8 8.0
2014-Aug-11 19:33N 53°27' W 003°01'0 0.3
2014-Aug-11 18:23N 53°27' W 003°01'0 0.1
2014-Aug-11 14:22N 53°27' W 003°01'0 0.0
2014-Aug-11 13:28N 53°27' W 003°01'  

Dump ship's entire track history